Aripeka, Florida
Current Conditions -  °F | °C
As of 6:53 PM on Saturday 20 Dec 2014 (Local Time) from KBKV Reporting Station
Broken Clouds Broken Clouds  
Wind Chill: 18°   Ceiling: 9500
Heat Index: 18°   Visibility: 10mi
Dew Point: 14°   Wind: 0mph
Humidity: 78%   Direction: NA
Pressure: 30.08"   Gusts: NA
Location:  28.43°N, 82.66°W
Report Text: KBKV 202353Z AUTO 00000KT 10SM BKN095 18/14 A3008 RMK AO2 SLP184 T01780139 10244 20178 52012
Loading
Personal Weather Stations






























Interactive Weather Map New forecast layout! Learn more

10-Day Weather Forecast

Advertisements
Track Severe Weather on mobile